Time;durP1;ratioP1;P1;durP2;ratioP2;P2;SDS_P1;SDS_P2;PMS_P1;PMS_P2;Temp;Humidity;BMP_temperature;BMP_pressure;BME280_temperature;BME280_humidity;BME280_pressure;Samples;Min_cycle;Max_cycle;Signal;HPM_P1;HPM_P2
2022/12/26 00:02:00;;;;;;;5.23;4.30;;;;;;;;;;5045207;28;20313;-30
2022/12/26 00:04:27;;;;;;;8.30;4.30;;;;;;;;;;5033421;28;20300;-30
2022/12/26 00:06:55;;;;;;;5.23;3.80;;;;;;;;;;5046735;28;20214;-30
2022/12/26 00:09:23;;;;;;;4.47;3.97;;;;;;;;;;5046289;28;20297;-26
2022/12/26 00:11:50;;;;;;;4.10;3.70;;;;;;;;;;5038913;28;20238;-28
2022/12/26 00:14:17;;;;;;;5.83;3.90;;;;;;;;;;5039825;28;20245;-27
2022/12/26 00:16:45;;;;;;;4.50;3.50;;;;;;;;;;5040080;28;20213;-31
2022/12/26 00:19:12;;;;;;;3.00;2.70;;;;;;;;;;5038867;28;20453;-27
2022/12/26 00:21:40;;;;;;;4.87;3.10;;;;;;;;;;5032839;28;20218;-29
2022/12/26 00:24:10;;;;;;;3.90;3.60;;;;;;;;;;5046672;28;20293;-29
2022/12/26 00:26:38;;;;;;;4.07;3.50;;;;;;;;;;5037865;28;20217;-31
2022/12/26 00:29:05;;;;;;;5.07;3.63;;;;;;;;;;5033016;28;20482;-30
2022/12/26 00:31:33;;;;;;;5.27;3.40;;;;;;;;;;5034084;28;20229;-28
2022/12/26 00:34:00;;;;;;;3.63;3.30;;;;;;;;;;5033919;28;20212;-29
2022/12/26 00:36:28;;;;;;;4.73;3.17;;;;;;;;;;5029843;28;20203;-30
2022/12/26 00:38:56;;;;;;;4.63;3.57;;;;;;;;;;5033635;28;20288;-31
2022/12/26 00:41:25;;;;;;;3.70;3.00;;;;;;;;;;5030586;28;20276;-26
2022/12/26 00:43:52;;;;;;;3.87;3.10;;;;;;;;;;5045843;28;20229;-33
2022/12/26 00:46:21;;;;;;;3.93;3.17;;;;;;;;;;5040781;28;20206;-29
2022/12/26 00:48:48;;;;;;;3.60;3.30;;;;;;;;;;5052682;28;20209;-32
2022/12/26 00:51:16;;;;;;;4.63;3.13;;;;;;;;;;5042919;28;20237;-27
2022/12/26 00:53:43;;;;;;;3.63;3.30;;;;;;;;;;5032376;28;20194;-28
2022/12/26 00:56:10;;;;;;;5.17;3.43;;;;;;;;;;5033222;28;20226;-30
2022/12/26 00:58:39;;;;;;;4.20;3.17;;;;;;;;;;5044165;28;20198;-33
2022/12/26 01:01:07;;;;;;;3.70;3.03;;;;;;;;;;5042185;28;20287;-31
2022/12/26 01:03:35;;;;;;;5.17;3.00;;;;;;;;;;5049277;28;20313;-26
2022/12/26 01:06:03;;;;;;;4.50;3.70;;;;;;;;;;5046314;28;20765;-29
2022/12/26 01:08:30;;;;;;;3.40;3.10;;;;;;;;;;5035074;28;20269;-27
2022/12/26 01:10:57;;;;;;;4.40;3.13;;;;;;;;;;5047290;28;20302;-28
2022/12/26 01:13:24;;;;;;;3.87;3.50;;;;;;;;;;5040966;28;20213;-29
2022/12/26 01:15:53;;;;;;;4.53;3.57;;;;;;;;;;5044948;28;20227;-28
2022/12/26 01:18:21;;;;;;;5.50;4.07;;;;;;;;;;5053042;28;20198;-33
2022/12/26 01:20:48;;;;;;;3.47;3.00;;;;;;;;;;5041868;28;20230;-27
2022/12/26 01:23:16;;;;;;;5.43;3.40;;;;;;;;;;5040035;28;20209;-30
2022/12/26 01:25:43;;;;;;;3.23;2.97;;;;;;;;;;5032035;28;20199;-28
2022/12/26 01:28:10;;;;;;;5.50;3.73;;;;;;;;;;5031524;28;20218;-27
2022/12/26 01:30:38;;;;;;;6.33;3.73;;;;;;;;;;5040697;28;20230;-28
2022/12/26 01:33:06;;;;;;;3.43;3.10;;;;;;;;;;5039608;28;20267;-28
2022/12/26 01:35:34;;;;;;;4.10;3.30;;;;;;;;;;5032939;28;20210;-32
2022/12/26 01:38:01;;;;;;;4.53;3.50;;;;;;;;;;5029065;28;20211;-29
2022/12/26 01:40:28;;;;;;;3.40;3.03;;;;;;;;;;5038573;28;20206;-28
2022/12/26 01:42:55;;;;;;;5.20;3.67;;;;;;;;;;5035689;28;20213;-33
2022/12/26 01:45:24;;;;;;;5.23;4.07;;;;;;;;;;5040019;28;20229;-32
2022/12/26 01:47:53;;;;;;;5.20;3.47;;;;;;;;;;5036345;28;20204;-30
2022/12/26 01:50:26;;;;;;;4.00;3.30;;;;;;;;;;5051701;28;20221;-25
2022/12/26 01:52:54;;;;;;;4.87;3.80;;;;;;;;;;5037412;28;20210;-26
2022/12/26 01:55:22;;;;;;;7.70;5.33;;;;;;;;;;5034309;28;20205;-31
2022/12/26 01:57:53;;;;;;;4.60;3.77;;;;;;;;;;5029603;28;20522;-26
2022/12/26 02:00:20;;;;;;;9.90;5.43;;;;;;;;;;5033852;28;20206;-26
2022/12/26 02:05:34;;;;;;;9.20;4.70;;;;;;;;;;5030204;28;20327;-28
2022/12/26 02:08:03;;;;;;;4.30;3.90;;;;;;;;;;5032271;28;20213;-29
2022/12/26 02:10:32;;;;;;;4.83;3.87;;;;;;;;;;5042294;28;20297;-27
2022/12/26 02:12:59;;;;;;;4.63;3.67;;;;;;;;;;5036587;28;20210;-30
2022/12/26 02:15:26;;;;;;;8.70;5.00;;;;;;;;;;5032392;28;20562;-28
2022/12/26 02:17:53;;;;;;;10.07;5.87;;;;;;;;;;5032502;28;20213;-31
2022/12/26 02:20:23;;;;;;;6.70;5.23;;;;;;;;;;5032278;28;20206;-32
2022/12/26 02:23:10;;;;;;;6.73;4.83;;;;;;;;;;5030499;28;20215;-28
2022/12/26 02:25:50;;;;;;;4.67;4.20;;;;;;;;;;5040569;28;20249;-29
2022/12/26 02:28:29;;;;;;;9.43;4.20;;;;;;;;;;5030823;28;20233;-31
2022/12/26 02:31:02;;;;;;;5.13;4.40;;;;;;;;;;5039837;28;20226;-28
2022/12/26 02:33:37;;;;;;;7.60;4.30;;;;;;;;;;5033876;28;20199;-29
2022/12/26 02:36:17;;;;;;;5.13;4.07;;;;;;;;;;5031727;28;20207;-28
2022/12/26 02:38:48;;;;;;;6.10;4.63;;;;;;;;;;5030843;28;20209;-33
2022/12/26 02:41:22;;;;;;;5.83;4.07;;;;;;;;;;5031831;28;20252;-27
2022/12/26 02:43:54;;;;;;;4.57;3.70;;;;;;;;;;5036379;28;20212;-27
2022/12/26 02:49:16;;;;;;;6.53;4.27;;;;;;;;;;5050938;28;20217;-28
2022/12/26 03:14:27;;;;;;;6.40;4.00;;;;;;;;;;5037187;28;20232;-28
2022/12/26 03:22:40;;;;;;;4.43;3.57;;;;;;;;;;5115169;27;20636;-35
2022/12/26 03:27:54;;;;;;;4.50;3.90;;;;;;;;;;5363962;22;20271;-29
2022/12/26 03:34:15;;;;;;;4.30;3.90;;;;;;;;;;5108061;28;20219;-28
2022/12/26 03:35:52;;;;;;;5.70;4.77;;;;;;;;;;5107351;28;20215;-30
2022/12/26 03:38:23;;;;;;;4.50;3.73;;;;;;;;;;5121524;28;20199;-29
2022/12/26 04:20:13;;;;;;;4.67;3.87;;;;;;;;;;5115532;28;20207;-28
2022/12/26 04:44:59;;;;;;;4.97;3.80;;;;;;;;;;5095867;28;20195;-29
2022/12/26 04:47:26;;;;;;;5.87;3.67;;;;;;;;;;5094340;28;20208;-29
2022/12/26 04:50:11;;;;;;;4.67;3.97;;;;;;;;;;5092925;28;20215;-28
2022/12/26 04:55:19;;;;;;;5.40;3.80;;;;;;;;;;5094456;28;20307;-27
2022/12/26 04:57:46;;;;;;;5.43;3.43;;;;;;;;;;5095012;28;20230;-28
2022/12/26 05:00:15;;;;;;;4.13;3.73;;;;;;;;;;5096527;28;20208;-28
2022/12/26 05:11:03;;;;;;;8.97;3.80;;;;;;;;;;5112784;28;20699;-29
2022/12/26 05:13:30;;;;;;;3.73;3.40;;;;;;;;;;5100648;28;20195;-29
2022/12/26 05:29:45;;;;;;;4.30;3.37;;;;;;;;;;5100318;28;20374;-30
2022/12/26 05:34:54;;;;;;;3.80;3.40;;;;;;;;;;5050066;28;20216;-29
2022/12/26 05:37:22;;;;;;;4.53;3.50;;;;;;;;;;5107702;28;20203;-27
2022/12/26 05:39:49;;;;;;;4.23;3.40;;;;;;;;;;5100157;28;20197;-28
2022/12/26 05:42:16;;;;;;;3.60;3.27;;;;;;;;;;5094188;28;20238;-29
2022/12/26 05:44:43;;;;;;;4.10;3.70;;;;;;;;;;5094660;28;20211;-30
2022/12/26 05:47:10;;;;;;;3.90;3.50;;;;;;;;;;5100480;28;20192;-26
2022/12/26 05:49:39;;;;;;;4.10;3.60;;;;;;;;;;5092328;28;20228;-29
2022/12/26 05:52:06;;;;;;;4.20;3.80;;;;;;;;;;5099005;28;20216;-28
2022/12/26 05:54:33;;;;;;;4.17;3.77;;;;;;;;;;5107508;28;20200;-27
2022/12/26 05:57:00;;;;;;;4.03;3.40;;;;;;;;;;5104430;28;20228;-29
2022/12/26 05:59:27;;;;;;;3.87;3.47;;;;;;;;;;5092949;28;20201;-30
2022/12/26 06:01:54;;;;;;;4.03;3.47;;;;;;;;;;5098461;28;20227;-27
2022/12/26 06:04:21;;;;;;;4.57;3.30;;;;;;;;;;5092386;28;20212;-27
2022/12/26 06:06:51;;;;;;;4.23;3.20;;;;;;;;;;5095548;28;20215;-28
2022/12/26 06:09:18;;;;;;;4.13;3.60;;;;;;;;;;5100476;28;20196;-29
2022/12/26 06:11:45;;;;;;;4.73;3.43;;;;;;;;;;5106302;28;20224;-28
2022/12/26 06:14:12;;;;;;;6.30;3.50;;;;;;;;;;5105024;28;20200;-28
2022/12/26 06:16:39;;;;;;;7.87;3.87;;;;;;;;;;5108887;28;20200;-27
2022/12/26 06:19:06;;;;;;;4.70;3.57;;;;;;;;;;5091509;28;20212;-27
2022/12/26 06:21:33;;;;;;;4.30;3.30;;;;;;;;;;5090328;28;20228;-27
2022/12/26 06:24:02;;;;;;;4.20;3.50;;;;;;;;;;5093171;28;20208;-29
2022/12/26 06:26:29;;;;;;;5.10;3.37;;;;;;;;;;5098382;28;20209;-29
2022/12/26 06:28:56;;;;;;;5.30;3.57;;;;;;;;;;5091727;28;20654;-27
2022/12/26 06:31:23;;;;;;;5.33;3.50;;;;;;;;;;5099972;28;20224;-31
2022/12/26 06:33:55;;;;;;;4.00;3.20;;;;;;;;;;5112018;28;20214;-29
2022/12/26 06:36:23;;;;;;;6.03;3.97;;;;;;;;;;5109203;28;20210;-28
2022/12/26 06:38:50;;;;;;;3.87;3.50;;;;;;;;;;5104653;28;20208;-28
2022/12/26 06:41:20;;;;;;;3.60;3.20;;;;;;;;;;5094898;28;20227;-28
2022/12/26 06:43:47;;;;;;;4.27;3.70;;;;;;;;;;5105442;28;20211;-28
2022/12/26 06:46:16;;;;;;;4.20;3.60;;;;;;;;;;5103090;28;20206;-29
2022/12/26 06:48:43;;;;;;;3.90;3.50;;;;;;;;;;5090579;28;20223;-29
2022/12/26 06:51:11;;;;;;;3.73;3.20;;;;;;;;;;5090643;28;20231;-30
2022/12/26 06:53:38;;;;;;;5.03;3.23;;;;;;;;;;5102787;28;20205;-26
2022/12/26 06:56:06;;;;;;;4.53;3.37;;;;;;;;;;5111495;28;20188;-29
2022/12/26 06:58:35;;;;;;;4.40;3.20;;;;;;;;;;5103381;28;20207;-29
2022/12/26 07:01:06;;;;;;;4.57;3.27;;;;;;;;;;5099259;28;20226;-28
2022/12/26 07:03:33;;;;;;;4.93;3.20;;;;;;;;;;5113207;28;20207;-28
2022/12/26 07:06:03;;;;;;;3.87;3.57;;;;;;;;;;5095404;28;20201;-28
2022/12/26 07:08:30;;;;;;;4.03;3.20;;;;;;;;;;5101330;28;20215;-27
2022/12/26 07:10:57;;;;;;;4.10;3.70;;;;;;;;;;5113052;28;20291;-27
2022/12/26 07:13:24;;;;;;;4.30;3.83;;;;;;;;;;5103431;28;20200;-28
2022/12/26 07:15:52;;;;;;;4.20;3.57;;;;;;;;;;5104428;28;20214;-29
2022/12/26 07:18:20;;;;;;;4.60;3.30;;;;;;;;;;5112482;28;20203;-29
2022/12/26 07:20:47;;;;;;;7.67;3.73;;;;;;;;;;5107559;28;20231;-27
2022/12/26 07:23:15;;;;;;;5.77;3.40;;;;;;;;;;5101049;28;20236;-26
2022/12/26 07:25:42;;;;;;;3.30;3.00;;;;;;;;;;5103096;28;20195;-26
2022/12/26 07:28:09;;;;;;;4.70;3.30;;;;;;;;;;5099199;28;20209;-27
2022/12/26 07:30:38;;;;;;;5.80;3.00;;;;;;;;;;5099538;28;20274;-29
2022/12/26 07:33:06;;;;;;;4.97;4.03;;;;;;;;;;5092636;28;20279;-29
2022/12/26 07:35:33;;;;;;;4.60;3.20;;;;;;;;;;5102299;28;20199;-30
2022/12/26 07:38:00;;;;;;;3.47;2.97;;;;;;;;;;5101923;28;20211;-27
2022/12/26 07:40:28;;;;;;;4.43;3.60;;;;;;;;;;5101751;28;20209;-27
2022/12/26 07:42:55;;;;;;;5.00;4.03;;;;;;;;;;5097116;28;20216;-27
2022/12/26 07:45:22;;;;;;;4.93;3.37;;;;;;;;;;5098756;28;20200;-28
2022/12/26 07:47:53;;;;;;;4.33;3.20;;;;;;;;;;5092788;28;20201;-29
2022/12/26 07:50:21;;;;;;;5.37;3.50;;;;;;;;;;5092041;28;20199;-30
2022/12/26 07:52:48;;;;;;;6.00;3.40;;;;;;;;;;5103779;28;20204;-28
2022/12/26 07:55:16;;;;;;;3.97;3.20;;;;;;;;;;5090054;28;20201;-29
2022/12/26 07:57:43;;;;;;;4.60;3.40;;;;;;;;;;5094114;28;20201;-29
2022/12/26 08:00:11;;;;;;;4.23;3.10;;;;;;;;;;5110897;28;20206;-27
2022/12/26 08:02:38;;;;;;;4.43;3.87;;;;;;;;;;5109903;28;20224;-29
2022/12/26 08:05:05;;;;;;;4.20;3.43;;;;;;;;;;5104141;28;20206;-28
2022/12/26 08:07:35;;;;;;;6.27;4.00;;;;;;;;;;5108504;28;20215;-29
2022/12/26 08:10:02;;;;;;;5.87;4.40;;;;;;;;;;5100859;28;20203;-27
2022/12/26 08:12:29;;;;;;;4.80;3.37;;;;;;;;;;5108189;28;20247;-27
2022/12/26 08:14:56;;;;;;;3.73;3.20;;;;;;;;;;5100220;28;20208;-30
2022/12/26 08:17:23;;;;;;;4.50;3.57;;;;;;;;;;5100343;28;20193;-27
2022/12/26 08:19:50;;;;;;;3.40;3.10;;;;;;;;;;5095165;28;22115;-27
2022/12/26 08:22:18;;;;;;;5.20;3.10;;;;;;;;;;5098935;28;20223;-27
2022/12/26 08:24:46;;;;;;;3.00;2.80;;;;;;;;;;5097394;28;20208;-27
2022/12/26 08:27:14;;;;;;;5.40;3.27;;;;;;;;;;5109720;28;20207;-28
2022/12/26 08:29:41;;;;;;;4.97;3.20;;;;;;;;;;5096360;28;20220;-28
2022/12/26 08:32:09;;;;;;;4.30;3.33;;;;;;;;;;5097777;28;20220;-30
2022/12/26 08:34:36;;;;;;;3.83;3.30;;;;;;;;;;5105231;28;20212;-29
2022/12/26 08:37:03;;;;;;;6.33;3.67;;;;;;;;;;5105196;28;20223;-26
2022/12/26 08:39:30;;;;;;;5.00;3.07;;;;;;;;;;5102701;28;20203;-29
2022/12/26 08:41:59;;;;;;;3.67;3.27;;;;;;;;;;5094499;28;20231;-27
2022/12/26 08:44:26;;;;;;;5.50;3.33;;;;;;;;;;5096478;28;20192;-26
2022/12/26 08:46:53;;;;;;;4.03;3.20;;;;;;;;;;5099594;28;20200;-29
2022/12/26 08:49:20;;;;;;;4.03;2.80;;;;;;;;;;5095540;28;20205;-27
2022/12/26 08:51:47;;;;;;;5.70;3.93;;;;;;;;;;5093604;28;20231;-28
2022/12/26 08:54:14;;;;;;;5.90;3.67;;;;;;;;;;5103394;28;20205;-27
2022/12/26 08:56:41;;;;;;;3.97;3.57;;;;;;;;;;5102339;28;20219;-29
2022/12/26 08:59:10;;;;;;;3.97;3.57;;;;;;;;;;5096876;28;20204;-27
2022/12/26 09:01:37;;;;;;;5.87;3.90;;;;;;;;;;5100110;28;20224;-27
2022/12/26 09:04:05;;;;;;;4.77;3.43;;;;;;;;;;5115832;28;20204;-28
2022/12/26 09:06:33;;;;;;;3.20;2.90;;;;;;;;;;5104620;28;20218;-27
2022/12/26 09:09:01;;;;;;;5.17;3.43;;;;;;;;;;5096714;28;20658;-28
2022/12/26 09:11:28;;;;;;;3.47;3.13;;;;;;;;;;5110903;28;20294;-26
2022/12/26 09:13:56;;;;;;;3.30;3.00;;;;;;;;;;5112321;28;20265;-28
2022/12/26 09:16:26;;;;;;;3.70;3.10;;;;;;;;;;5102102;28;20208;-29
2022/12/26 09:18:54;;;;;;;5.47;3.23;;;;;;;;;;5095282;28;20200;-26
2022/12/26 09:21:21;;;;;;;3.70;3.10;;;;;;;;;;5096305;28;20231;-26
2022/12/26 09:23:48;;;;;;;5.53;3.40;;;;;;;;;;5101686;28;20220;-27
2022/12/26 09:26:16;;;;;;;4.87;3.00;;;;;;;;;;5100382;28;20208;-27
2022/12/26 09:28:45;;;;;;;4.53;3.50;;;;;;;;;;5105435;28;20205;-26
2022/12/26 09:31:14;;;;;;;5.43;3.77;;;;;;;;;;5096123;28;20582;-29
2022/12/26 09:33:42;;;;;;;4.97;3.60;;;;;;;;;;5098432;28;20192;-26
2022/12/26 09:36:11;;;;;;;4.73;3.93;;;;;;;;;;5097104;28;20258;-30
2022/12/26 09:38:38;;;;;;;5.33;4.00;;;;;;;;;;5098781;28;20211;-28
2022/12/26 09:41:10;;;;;;;3.80;3.10;;;;;;;;;;5102070;28;20220;-29
2022/12/26 09:43:44;;;;;;;4.70;3.20;;;;;;;;;;5095505;28;20215;-28
2022/12/26 09:46:17;;;;;;;4.87;3.23;;;;;;;;;;5114108;28;20199;-28
2022/12/26 09:48:49;;;;;;;6.30;4.13;;;;;;;;;;5114587;28;20218;-29
2022/12/26 09:51:16;;;;;;;7.07;4.83;;;;;;;;;;5104047;28;20223;-29
2022/12/26 09:53:46;;;;;;;7.27;4.77;;;;;;;;;;5093755;28;20208;-28
2022/12/26 09:56:14;;;;;;;5.30;4.27;;;;;;;;;;5101935;28;20228;-29
2022/12/26 09:58:44;;;;;;;8.83;4.50;;;;;;;;;;5101392;28;20197;-26
2022/12/26 10:01:14;;;;;;;9.70;5.27;;;;;;;;;;5105308;28;20225;-26
2022/12/26 10:03:43;;;;;;;9.13;6.13;;;;;;;;;;5096706;28;20223;-30
2022/12/26 10:06:14;;;;;;;6.07;4.80;;;;;;;;;;5102345;28;20268;-27
2022/12/26 10:08:47;;;;;;;6.53;5.00;;;;;;;;;;5103765;28;20206;-28
2022/12/26 10:11:19;;;;;;;6.50;4.70;;;;;;;;;;5096550;28;20216;-30
2022/12/26 10:13:48;;;;;;;4.93;3.63;;;;;;;;;;5102741;28;20202;-28
2022/12/26 10:16:17;;;;;;;4.33;3.87;;;;;;;;;;5098423;28;20208;-27
2022/12/26 10:18:52;;;;;;;4.27;3.70;;;;;;;;;;5103767;28;20205;-27
2022/12/26 10:21:29;;;;;;;3.70;3.40;;;;;;;;;;5092181;28;20307;-28
2022/12/26 10:23:58;;;;;;;4.70;4.03;;;;;;;;;;5091257;28;20524;-27
2022/12/26 10:26:29;;;;;;;8.20;4.30;;;;;;;;;;5104966;28;20210;-30
2022/12/26 10:28:58;;;;;;;8.37;4.90;;;;;;;;;;5098162;28;20207;-28
2022/12/26 10:31:27;;;;;;;4.97;3.97;;;;;;;;;;5100536;28;20220;-29
2022/12/26 10:33:57;;;;;;;6.47;3.77;;;;;;;;;;5093210;28;20203;-26
2022/12/26 10:36:31;;;;;;;5.27;3.87;;;;;;;;;;5093750;28;20204;-31
2022/12/26 10:39:00;;;;;;;9.03;4.80;;;;;;;;;;5097157;28;20205;-26
2022/12/26 10:41:28;;;;;;;5.33;4.10;;;;;;;;;;5098876;28;20232;-29
2022/12/26 10:43:55;;;;;;;4.30;3.83;;;;;;;;;;5099946;28;20211;-28
2022/12/26 10:46:33;;;;;;;6.23;4.20;;;;;;;;;;5104389;28;20207;-27
2022/12/26 10:49:01;;;;;;;5.87;5.10;;;;;;;;;;5109146;28;20212;-30
2022/12/26 10:51:29;;;;;;;7.27;5.70;;;;;;;;;;5103522;28;20235;-29
2022/12/26 10:53:56;;;;;;;8.67;5.27;;;;;;;;;;5097852;28;20287;-29
2022/12/26 10:56:24;;;;;;;10.87;5.80;;;;;;;;;;5111205;28;20443;-30
2022/12/26 10:58:59;;;;;;;9.33;5.67;;;;;;;;;;5094447;28;20197;-30
2022/12/26 11:01:31;;;;;;;8.87;6.20;;;;;;;;;;5106661;28;20355;-28
2022/12/26 11:03:58;;;;;;;11.53;6.07;;;;;;;;;;5095175;28;20222;-36
2022/12/26 11:06:27;;;;;;;11.53;5.77;;;;;;;;;;5100987;28;20545;-32
2022/12/26 11:08:56;;;;;;;11.20;6.07;;;;;;;;;;5098997;28;20197;-27
2022/12/26 11:11:25;;;;;;;8.43;6.00;;;;;;;;;;5095250;28;20226;-26
2022/12/26 11:13:54;;;;;;;8.00;5.93;;;;;;;;;;5098468;28;20208;-26
2022/12/26 11:16:26;;;;;;;7.90;5.93;;;;;;;;;;5100609;28;20200;-28
2022/12/26 11:18:54;;;;;;;9.80;6.00;;;;;;;;;;5094573;28;20219;-26
2022/12/26 11:21:22;;;;;;;7.40;5.70;;;;;;;;;;5104588;28;20228;-26
2022/12/26 11:23:51;;;;;;;9.17;5.47;;;;;;;;;;5096353;28;20243;-29
2022/12/26 11:26:22;;;;;;;7.73;5.13;;;;;;;;;;5095699;28;20481;-26
2022/12/26 11:28:49;;;;;;;6.40;5.27;;;;;;;;;;5101030;28;20759;-28
2022/12/26 11:31:23;;;;;;;7.40;5.87;;;;;;;;;;5097626;28;20220;-29
2022/12/26 11:33:51;;;;;;;6.83;5.37;;;;;;;;;;5090770;28;20204;-28
2022/12/26 11:36:21;;;;;;;7.90;6.37;;;;;;;;;;5086512;28;20220;-27
2022/12/26 11:38:52;;;;;;;9.40;6.10;;;;;;;;;;5094464;28;20207;-28
2022/12/26 11:41:32;;;;;;;10.30;7.43;;;;;;;;;;5094726;28;20224;-30
2022/12/26 11:44:02;;;;;;;8.00;6.63;;;;;;;;;;5094725;28;20223;-30
2022/12/26 11:46:34;;;;;;;8.80;7.03;;;;;;;;;;5112903;28;20192;-27
2022/12/26 11:49:02;;;;;;;7.77;5.13;;;;;;;;;;5113149;28;20208;-27
2022/12/26 11:51:48;;;;;;;9.43;4.93;;;;;;;;;;5097199;28;20224;-28
2022/12/26 11:54:23;;;;;;;6.33;4.30;;;;;;;;;;5102634;28;20196;-27
2022/12/26 11:57:00;;;;;;;9.50;5.23;;;;;;;;;;5111460;28;20285;-26
2022/12/26 11:59:27;;;;;;;8.23;5.30;;;;;;;;;;5102713;28;20215;-27
2022/12/26 12:02:09;;;;;;;7.37;5.03;;;;;;;;;;5106068;28;20219;-28
2022/12/26 12:04:37;;;;;;;9.03;6.10;;;;;;;;;;5116611;28;20227;-30
2022/12/26 12:07:08;;;;;;;10.60;6.07;;;;;;;;;;5105751;28;20200;-29
2022/12/26 12:09:38;;;;;;;7.83;6.27;;;;;;;;;;5105307;28;20208;-28
2022/12/26 12:12:11;;;;;;;11.00;6.30;;;;;;;;;;5104673;28;20227;-29
2022/12/26 12:14:47;;;;;;;7.10;5.47;;;;;;;;;;5113809;28;20203;-27
2022/12/26 12:17:20;;;;;;;7.70;6.00;;;;;;;;;;5107678;28;20188;-27
2022/12/26 12:19:52;;;;;;;11.23;6.50;;;;;;;;;;5111743;28;20200;-27
2022/12/26 12:22:27;;;;;;;8.77;6.27;;;;;;;;;;5106510;28;20223;-28
2022/12/26 12:25:05;;;;;;;8.37;6.97;;;;;;;;;;5095515;28;20205;-29
2022/12/26 12:27:36;;;;;;;9.50;7.00;;;;;;;;;;5096205;28;20210;-28
2022/12/26 12:30:26;;;;;;;8.70;6.40;;;;;;;;;;5107329;28;20207;-27
2022/12/26 12:33:12;;;;;;;10.77;6.87;;;;;;;;;;5090056;28;20203;-28
2022/12/26 12:35:47;;;;;;;11.40;6.43;;;;;;;;;;5108493;28;20220;-26
2022/12/26 12:38:25;;;;;;;10.27;6.90;;;;;;;;;;5102365;28;20211;-29
2022/12/26 12:40:58;;;;;;;7.93;6.73;;;;;;;;;;5114968;28;20236;-27
2022/12/26 12:43:31;;;;;;;7.67;6.20;;;;;;;;;;5102220;28;20220;-29
2022/12/26 12:46:03;;;;;;;5.87;5.23;;;;;;;;;;5100637;28;20200;-29
2022/12/26 12:48:36;;;;;;;6.57;5.30;;;;;;;;;;5097024;28;20203;-27
2022/12/26 12:51:06;;;;;;;3.70;3.10;;;;;;;;;;5098269;28;20227;-28
2022/12/26 12:53:40;;;;;;;3.17;2.30;;;;;;;;;;5093910;28;20299;-28
2022/12/26 12:56:17;;;;;;;2.50;2.30;;;;;;;;;;5110682;28;20227;-30
2022/12/26 12:58:48;;;;;;;3.57;2.33;;;;;;;;;;5103555;28;20197;-29
2022/12/26 13:01:18;;;;;;;3.93;2.17;;;;;;;;;;5102869;28;20307;-27
2022/12/26 13:03:49;;;;;;;1.70;1.50;;;;;;;;;;5107067;28;20223;-29
2022/12/26 13:06:17;;;;;;;1.33;1.23;;;;;;;;;;5108886;28;20204;-29
2022/12/26 13:08:45;;;;;;;1.37;1.23;;;;;;;;;;5094136;28;20207;-29
2022/12/26 13:11:14;;;;;;;1.37;1.27;;;;;;;;;;5094209;28;20228;-28
2022/12/26 13:13:43;;;;;;;1.17;1.07;;;;;;;;;;5094428;28;20260;-27
2022/12/26 13:16:13;;;;;;;1.03;0.93;;;;;;;;;;5101649;28;20196;-30
2022/12/26 13:18:45;;;;;;;1.50;1.20;;;;;;;;;;5094560;28;20291;-29
2022/12/26 13:21:13;;;;;;;1.47;1.37;;;;;;;;;;5097861;28;20281;-27
2022/12/26 13:26:29;;;;;;;1.40;1.30;;;;;;;;;;5109756;28;20225;-27
2022/12/26 13:28:59;;;;;;;1.43;1.33;;;;;;;;;;5094063;28;20358;-29
2022/12/26 13:31:32;;;;;;;2.40;1.53;;;;;;;;;;5107392;28;20231;-29
2022/12/26 13:33:59;;;;;;;1.30;1.10;;;;;;;;;;5108858;28;20214;-28
2022/12/26 13:36:38;;;;;;;1.23;1.13;;;;;;;;;;5111550;28;20211;-30
2022/12/26 13:39:25;;;;;;;1.37;1.27;;;;;;;;;;5093578;28;20192;-26
2022/12/26 13:44:38;;;;;;;1.07;1.07;;;;;;;;;;5101747;28;20223;-26
2022/12/26 13:47:27;;;;;;;1.90;1.73;;;;;;;;;;5100525;28;20203;-28
2022/12/26 13:49:54;;;;;;;2.93;2.33;;;;;;;;;;5104493;28;20303;-29
2022/12/26 13:52:25;;;;;;;2.37;1.87;;;;;;;;;;5104684;28;20243;-28
2022/12/26 13:55:09;;;;;;;1.50;1.40;;;;;;;;;;5101434;28;20193;-27
2022/12/26 13:57:39;;;;;;;2.17;1.60;;;;;;;;;;5092317;28;20205;-30
2022/12/26 14:00:11;;;;;;;2.03;1.80;;;;;;;;;;5108009;28;20200;-29
2022/12/26 14:02:49;;;;;;;1.70;1.60;;;;;;;;;;5110655;28;20227;-28
2022/12/26 14:05:22;;;;;;;1.37;1.30;;;;;;;;;;5091231;28;20204;-27
2022/12/26 14:07:56;;;;;;;2.20;1.40;;;;;;;;;;5101552;28;20196;-27
2022/12/26 14:10:25;;;;;;;1.33;1.23;;;;;;;;;;5096811;28;20195;-30
2022/12/26 14:13:03;;;;;;;1.00;1.00;;;;;;;;;;5101390;28;20204;-29
2022/12/26 14:15:35;;;;;;;1.93;1.47;;;;;;;;;;5103925;28;20203;-27
2022/12/26 14:18:10;;;;;;;2.27;1.33;;;;;;;;;;5114524;28;20192;-27
2022/12/26 14:20:42;;;;;;;2.87;1.60;;;;;;;;;;5100943;28;20199;-29
2022/12/26 14:23:30;;;;;;;1.50;1.40;;;;;;;;;;5093804;28;20204;-28
2022/12/26 14:26:02;;;;;;;1.40;1.30;;;;;;;;;;5094569;28;20205;-27
2022/12/26 14:28:31;;;;;;;1.57;1.47;;;;;;;;;;5107360;28;20212;-29
2022/12/26 14:31:06;;;;;;;1.77;1.67;;;;;;;;;;5099732;28;20225;-28
2022/12/26 14:33:38;;;;;;;1.07;0.97;;;;;;;;;;5096101;28;20197;-27
2022/12/26 14:36:14;;;;;;;0.90;0.90;;;;;;;;;;5096729;28;20196;-26
2022/12/26 14:38:46;;;;;;;0.90;0.90;;;;;;;;;;5114193;28;20206;-27
2022/12/26 14:43:56;;;;;;;1.33;1.23;;;;;;;;;;5106139;28;20256;-28
2022/12/26 14:46:41;;;;;;;2.27;2.00;;;;;;;;;;5093729;28;20279;-29
2022/12/26 14:49:22;;;;;;;1.70;1.60;;;;;;;;;;5080496;28;20200;-28
2022/12/26 14:51:49;;;;;;;2.37;1.90;;;;;;;;;;5097502;28;20220;-27
2022/12/26 14:54:45;;;;;;;2.27;1.60;;;;;;;;;;5106334;28;20207;-28
2022/12/26 14:57:33;;;;;;;1.90;1.40;;;;;;;;;;5100943;28;20200;-27
2022/12/26 15:00:11;;;;;;;1.90;1.50;;;;;;;;;;5088892;28;20201;-30
2022/12/26 15:02:39;;;;;;;2.27;1.20;;;;;;;;;;5100808;28;20224;-26
2022/12/26 15:05:11;;;;;;;2.00;1.03;;;;;;;;;;5099842;28;20220;-29
2022/12/26 15:08:09;;;;;;;1.20;1.10;;;;;;;;;;5097897;28;20296;-28
2022/12/26 15:10:49;;;;;;;1.60;0.93;;;;;;;;;;5107770;28;20203;-27
2022/12/26 15:13:26;;;;;;;0.77;0.77;;;;;;;;;;5093716;28;20212;-28
2022/12/26 15:16:02;;;;;;;1.30;1.20;;;;;;;;;;5099292;28;20207;-27
2022/12/26 15:18:51;;;;;;;2.10;1.03;;;;;;;;;;5092391;28;20204;-26
2022/12/26 15:21:37;;;;;;;1.10;1.10;;;;;;;;;;5092232;28;20251;-27
2022/12/26 15:24:19;;;;;;;1.20;1.10;;;;;;;;;;5096723;28;20234;-27
2022/12/26 15:27:07;;;;;;;1.17;0.87;;;;;;;;;;5101075;28;20211;-28
2022/12/26 15:29:40;;;;;;;0.90;0.90;;;;;;;;;;5091250;28;20212;-28
2022/12/26 15:32:10;;;;;;;1.40;1.00;;;;;;;;;;5104751;28;20212;-29
2022/12/26 15:34:57;;;;;;;0.70;0.67;;;;;;;;;;5099896;28;20196;-29
2022/12/26 15:37:39;;;;;;;1.47;1.00;;;;;;;;;;5096807;28;20280;-28
2022/12/26 15:40:13;;;;;;;1.17;1.10;;;;;;;;;;5095541;28;20291;-28
2022/12/26 15:42:45;;;;;;;4.47;2.20;;;;;;;;;;5103965;28;20398;-28
2022/12/26 15:45:22;;;;;;;3.13;1.83;;;;;;;;;;5096277;28;20232;-29
2022/12/26 15:47:52;;;;;;;1.40;1.30;;;;;;;;;;5105770;28;20202;-30
2022/12/26 15:50:24;;;;;;;2.97;2.37;;;;;;;;;;5108126;28;20215;-29
2022/12/26 15:52:55;;;;;;;5.33;2.30;;;;;;;;;;5101716;28;20204;-27
2022/12/26 15:55:31;;;;;;;4.50;2.37;;;;;;;;;;5093020;28;20207;-30
2022/12/26 15:58:00;;;;;;;4.37;2.90;;;;;;;;;;5094893;28;20204;-29
2022/12/26 16:00:30;;;;;;;5.60;3.40;;;;;;;;;;5089996;28;20201;-31
2022/12/26 16:03:06;;;;;;;5.77;3.63;;;;;;;;;;5097316;28;20201;-30
2022/12/26 16:05:35;;;;;;;5.27;2.77;;;;;;;;;;5098490;28;20228;-29
2022/12/26 16:08:12;;;;;;;1.47;1.20;;;;;;;;;;5086057;28;20902;-29
2022/12/26 16:10:40;;;;;;;1.17;1.00;;;;;;;;;;5103422;28;20314;-28
2022/12/26 16:13:21;;;;;;;2.47;1.20;;;;;;;;;;5096869;28;20193;-28
2022/12/26 16:15:51;;;;;;;1.70;1.47;;;;;;;;;;5105546;28;20224;-30
2022/12/26 16:18:19;;;;;;;1.80;1.70;;;;;;;;;;5103494;28;20658;-28
2022/12/26 16:23:35;;;;;;;2.97;2.00;;;;;;;;;;5100257;28;20203;-28
2022/12/26 16:26:02;;;;;;;3.00;1.40;;;;;;;;;;5102643;28;20560;-30
2022/12/26 16:28:31;;;;;;;1.20;1.10;;;;;;;;;;5099334;28;20219;-27
2022/12/26 16:31:00;;;;;;;1.30;0.70;;;;;;;;;;5107324;28;20216;-27
2022/12/26 16:33:30;;;;;;;1.80;1.17;;;;;;;;;;5111992;28;20204;-30
2022/12/26 16:35:57;;;;;;;1.40;0.97;;;;;;;;;;5103561;28;20283;-26
2022/12/26 16:38:26;;;;;;;0.93;0.93;;;;;;;;;;5097972;28;20220;-30
2022/12/26 16:40:54;;;;;;;0.70;0.70;;;;;;;;;;5097957;28;20228;-27
2022/12/26 16:43:26;;;;;;;0.83;0.80;;;;;;;;;;5098539;28;20200;-30
2022/12/26 16:45:55;;;;;;;1.97;1.20;;;;;;;;;;5106433;28;20220;-29
2022/12/26 16:48:24;;;;;;;1.10;1.00;;;;;;;;;;5112814;28;20202;-29
2022/12/26 16:50:53;;;;;;;1.33;1.23;;;;;;;;;;5111984;28;20227;-29
2022/12/26 16:53:21;;;;;;;1.03;0.93;;;;;;;;;;5105411;28;20204;-29
2022/12/26 16:55:50;;;;;;;2.60;1.70;;;;;;;;;;5103301;28;20200;-30
2022/12/26 16:58:26;;;;;;;2.50;1.93;;;;;;;;;;5103663;28;20204;-26
2022/12/26 17:00:59;;;;;;;4.23;2.57;;;;;;;;;;5102729;28;20302;-27
2022/12/26 17:03:30;;;;;;;5.03;3.10;;;;;;;;;;5104499;28;20206;-29
2022/12/26 17:05:57;;;;;;;5.97;3.97;;;;;;;;;;5100717;28;20220;-30
2022/12/26 17:08:26;;;;;;;5.37;4.37;;;;;;;;;;5109108;28;20264;-30
2022/12/26 17:10:53;;;;;;;4.53;3.90;;;;;;;;;;5107298;28;20230;-29
2022/12/26 17:13:23;;;;;;;4.73;3.53;;;;;;;;;;5099455;28;20200;-27
2022/12/26 17:15:53;;;;;;;5.10;3.70;;;;;;;;;;5104948;28;20192;-27
2022/12/26 17:18:32;;;;;;;3.57;2.73;;;;;;;;;;5106694;28;20204;-29
2022/12/26 17:21:15;;;;;;;4.07;3.00;;;;;;;;;;5103300;28;20230;-28
2022/12/26 17:23:42;;;;;;;2.43;2.20;;;;;;;;;;5098659;28;20205;-28